createdAt,value
2018-10-16T00:00:16.014Z,8.54
2018-10-16T00:02:46.129Z,8.47
2018-10-16T00:05:21.098Z,8.44
2018-10-16T00:07:50.839Z,8.40
2018-10-16T00:10:25.687Z,8.36
2018-10-16T00:12:55.321Z,8.39
2018-10-16T00:15:24.954Z,8.37
2018-10-16T00:17:54.661Z,8.29
2018-10-16T00:20:24.295Z,8.23
2018-10-16T00:22:53.890Z,8.01
2018-10-16T00:25:23.479Z,7.87
2018-10-16T00:27:53.135Z,7.74
2018-10-16T00:30:23.011Z,7.63
2018-10-16T00:32:52.654Z,7.57
2018-10-16T00:35:22.306Z,7.48
2018-10-16T00:37:51.923Z,7.44
2018-10-16T00:40:21.628Z,7.46
2018-10-16T00:42:51.283Z,7.47
2018-10-16T00:45:20.911Z,7.44
2018-10-16T00:47:50.574Z,7.41
2018-10-16T00:50:39.454Z,7.40
2018-10-16T00:53:09.112Z,7.54
2018-10-16T00:55:38.790Z,7.63
2018-10-16T00:58:08.439Z,7.61
2018-10-16T01:00:38.154Z,7.69
2018-10-16T01:03:07.930Z,7.74
2018-10-16T01:05:37.594Z,7.80
2018-10-16T01:08:07.590Z,7.85
2018-10-16T01:10:37.274Z,7.73
2018-10-16T01:13:06.947Z,7.62
2018-10-16T01:15:39.805Z,7.47
2018-10-16T01:18:09.442Z,7.36
2018-10-16T01:20:39.062Z,7.36
2018-10-16T01:23:08.767Z,7.33
2018-10-16T01:25:38.483Z,7.27
2018-10-16T01:28:08.127Z,7.18
2018-10-16T01:30:37.766Z,7.10
2018-10-16T01:33:07.478Z,7.17
2018-10-16T01:35:37.102Z,7.43
2018-10-16T01:38:07.070Z,7.40
2018-10-16T01:40:36.759Z,7.31
2018-10-16T01:43:06.615Z,7.32
2018-10-16T01:45:36.275Z,7.45
2018-10-16T01:48:06.332Z,7.54
2018-10-16T01:50:35.990Z,7.51
2018-10-16T01:53:05.755Z,7.52
2018-10-16T01:55:35.398Z,7.45
2018-10-16T01:58:05.036Z,7.43
2018-10-16T02:00:34.664Z,7.39
2018-10-16T02:03:04.362Z,7.35
2018-10-16T02:05:46.792Z,7.33
2018-10-16T02:08:16.371Z,7.29
2018-10-16T02:10:46.018Z,7.30
2018-10-16T02:13:15.639Z,7.36
2018-10-16T02:15:45.202Z,7.40
2018-10-16T02:18:15.076Z,7.32
2018-10-16T02:20:44.717Z,7.28
2018-10-16T02:23:14.470Z,7.25
2018-10-16T02:25:44.071Z,7.12
2018-10-16T02:28:13.726Z,7.03
2018-10-16T02:30:43.319Z,7.01
2018-10-16T02:33:12.963Z,6.93
2018-10-16T02:35:42.522Z,6.89
2018-10-16T02:38:12.144Z,6.88
2018-10-16T02:40:52.690Z,6.90
2018-10-16T02:43:22.423Z,6.94
2018-10-16T02:45:52.225Z,6.98
2018-10-16T02:48:21.847Z,7.01
2018-10-16T02:50:51.594Z,7.02
2018-10-16T02:53:21.311Z,7.02
2018-10-16T02:55:51.015Z,7.03
2018-10-16T02:58:20.612Z,7.06
2018-10-16T03:00:50.268Z,7.07
2018-10-16T03:03:35.654Z,7.03
2018-10-16T03:06:05.769Z,7.01
2018-10-16T03:08:35.692Z,6.96
2018-10-16T03:11:05.819Z,6.79
2018-10-16T03:13:35.435Z,6.72
2018-10-16T03:16:05.523Z,6.70
2018-10-16T03:18:35.223Z,6.81
2018-10-16T03:21:05.358Z,6.67
2018-10-16T03:23:35.054Z,6.48
2018-10-16T03:26:04.851Z,6.43
2018-10-16T03:28:34.486Z,6.48
2018-10-16T03:31:04.207Z,6.59
2018-10-16T03:33:34.227Z,6.50
2018-10-16T03:36:03.897Z,6.40
2018-10-16T03:38:33.526Z,6.47
2018-10-16T03:41:03.095Z,6.59
2018-10-16T03:43:32.682Z,6.63
2018-10-16T03:46:02.359Z,6.59
2018-10-16T03:48:31.951Z,6.52
2018-10-16T03:51:01.571Z,6.44
2018-10-16T03:53:31.407Z,6.44
2018-10-16T03:56:01.028Z,6.47
2018-10-16T03:58:30.667Z,6.54
2018-10-16T04:01:00.314Z,6.53
2018-10-16T04:03:29.950Z,6.53
2018-10-16T04:05:59.606Z,6.62
2018-10-16T04:08:29.142Z,6.61
2018-10-16T04:10:58.679Z,6.60
2018-10-16T04:13:28.462Z,6.63
2018-10-16T04:16:22.146Z,6.61
2018-10-16T04:18:51.767Z,6.59
2018-10-16T04:21:21.370Z,6.58
2018-10-16T04:23:50.968Z,6.56
2018-10-16T04:26:20.633Z,6.62
2018-10-16T04:28:50.170Z,6.61
2018-10-16T04:31:19.806Z,6.57
2018-10-16T04:33:49.444Z,6.55
2018-10-16T04:36:19.061Z,6.53
2018-10-16T04:38:48.639Z,6.55
2018-10-16T04:41:18.301Z,6.57
2018-10-16T04:43:47.984Z,6.57
2018-10-16T04:46:17.489Z,6.43
2018-10-16T04:48:47.098Z,6.38
2018-10-16T04:51:16.619Z,6.37
2018-10-16T04:53:46.224Z,6.45
2018-10-16T04:56:15.902Z,6.33
2018-10-16T04:59:09.685Z,6.12
2018-10-16T05:01:39.350Z,6.03
2018-10-16T05:04:09.182Z,5.98
2018-10-16T05:06:39.043Z,5.90
2018-10-16T05:09:21.028Z,5.94
2018-10-16T05:11:54.047Z,6.05
2018-10-16T05:14:23.806Z,6.02
2018-10-16T05:20:02.374Z,5.88
2018-10-16T05:22:31.951Z,5.89
2018-10-16T05:25:01.563Z,5.85
2018-10-16T05:27:31.146Z,5.79
2018-10-16T05:30:06.517Z,5.72
2018-10-16T05:32:37.113Z,5.70
2018-10-16T05:35:11.150Z,5.67
2018-10-16T05:37:41.239Z,5.63
2018-10-16T05:40:11.710Z,5.74
2018-10-16T05:42:41.654Z,5.93
2018-10-16T05:45:12.772Z,6.02
2018-10-16T05:47:43.999Z,5.97
2018-10-16T05:50:13.713Z,5.92
2018-10-16T05:52:43.384Z,5.94
2018-10-16T05:55:13.271Z,5.92
2018-10-16T05:57:42.865Z,5.92
2018-10-16T06:00:29.187Z,5.98
2018-10-16T06:03:16.684Z,6.04
2018-10-16T06:05:46.388Z,6.10
2018-10-16T06:08:16.034Z,6.21
2018-10-16T06:10:45.382Z,6.37
2018-10-16T06:13:14.715Z,6.71
2018-10-16T06:15:44.016Z,7.03
2018-10-16T06:18:13.330Z,7.54
2018-10-16T06:20:42.722Z,8.01
2018-10-16T06:23:12.362Z,8.30
2018-10-16T06:25:42.018Z,8.58
2018-10-16T06:28:21.986Z,9.15
2018-10-16T06:30:51.656Z,9.61
2018-10-16T06:33:23.125Z,10.36
2018-10-16T06:35:52.802Z,10.99
2018-10-16T06:38:22.494Z,11.48
2018-10-16T06:40:52.404Z,11.78
2018-10-16T06:43:22.022Z,12.31
2018-10-16T06:45:51.712Z,12.84
2018-10-16T06:48:21.704Z,13.11
2018-10-16T06:50:51.019Z,13.76
2018-10-16T06:53:20.766Z,14.26
2018-10-16T06:55:50.418Z,14.63
2018-10-16T06:58:19.982Z,15.10
2018-10-16T07:00:49.605Z,15.41
2018-10-16T07:03:19.232Z,15.81
2018-10-16T07:05:48.914Z,16.44
2018-10-16T07:08:18.445Z,17.16
2018-10-16T07:10:48.091Z,17.60
2018-10-16T07:13:17.715Z,18.05
2018-10-16T07:15:47.519Z,18.76
2018-10-16T07:18:17.202Z,19.00
2018-10-16T07:20:46.881Z,19.13
2018-10-16T07:23:16.573Z,19.85
2018-10-16T07:25:46.226Z,20.34
2018-10-16T07:28:15.903Z,20.33
2018-10-16T07:30:45.591Z,20.24
2018-10-16T07:33:15.166Z,20.08
2018-10-16T07:35:44.788Z,19.66
2018-10-16T07:38:14.628Z,19.01
2018-10-16T07:40:44.124Z,18.67
2018-10-16T07:43:13.751Z,18.63
2018-10-16T07:45:43.452Z,17.93
2018-10-16T07:48:13.344Z,17.37
2018-10-16T07:51:03.726Z,16.91
2018-10-16T07:53:33.391Z,16.86
2018-10-16T07:56:03.134Z,17.59
2018-10-16T07:58:32.711Z,16.96
2018-10-16T08:01:02.455Z,17.69
2018-10-16T08:03:32.131Z,17.13
2018-10-16T08:06:01.738Z,17.28
2018-10-16T08:08:31.382Z,16.65
2018-10-16T08:11:01.245Z,15.62
2018-10-16T08:13:31.022Z,15.64
2018-10-16T08:16:00.620Z,15.99
2018-10-16T08:18:30.231Z,17.07
2018-10-16T08:21:00.077Z,17.32
2018-10-16T08:23:29.774Z,17.97
2018-10-16T08:25:59.480Z,18.75
2018-10-16T08:28:29.207Z,19.96
2018-10-16T08:30:58.892Z,20.93
2018-10-16T08:33:28.544Z,21.54
2018-10-16T08:35:58.282Z,19.89
2018-10-16T08:38:43.325Z,20.77
2018-10-16T08:41:15.028Z,20.60
2018-10-16T08:44:20.455Z,21.25
2018-10-16T08:47:06.947Z,20.42
2018-10-16T08:49:53.478Z,21.03
2018-10-16T08:52:23.119Z,20.43
2018-10-16T08:54:52.788Z,20.18
2018-10-16T08:57:22.725Z,20.76
2018-10-16T08:59:52.391Z,20.90
2018-10-16T09:02:21.922Z,21.57
2018-10-16T09:04:51.623Z,21.67
2018-10-16T09:07:21.227Z,21.54
2018-10-16T09:09:50.915Z,21.26
2018-10-16T09:12:20.539Z,21.40
2018-10-16T09:14:50.203Z,21.03
2018-10-16T09:17:19.837Z,19.81
2018-10-16T09:19:49.515Z,20.19
2018-10-16T09:22:19.110Z,19.78
2018-10-16T09:24:48.791Z,19.62
2018-10-16T09:27:18.402Z,20.09
2018-10-16T09:29:47.967Z,19.59
2018-10-16T09:32:17.626Z,20.53
2018-10-16T09:34:47.281Z,20.92
2018-10-16T09:37:16.878Z,21.61
2018-10-16T09:39:46.623Z,22.11
2018-10-16T09:42:16.216Z,21.97
2018-10-16T09:44:45.834Z,22.63
2018-10-16T09:47:15.472Z,23.45
2018-10-16T09:49:45.215Z,23.56
2018-10-16T09:52:14.848Z,23.34
2018-10-16T09:54:44.386Z,24.24
2018-10-16T09:57:14.110Z,23.31
2018-10-16T09:59:43.731Z,24.24
2018-10-16T10:02:13.376Z,23.63
2018-10-16T10:04:42.970Z,24.21
2018-10-16T10:07:12.630Z,23.95
2018-10-16T10:09:42.175Z,24.89
2018-10-16T10:12:11.783Z,22.74
2018-10-16T10:14:41.381Z,22.71
2018-10-16T10:17:11.006Z,22.50
2018-10-16T10:19:40.623Z,22.29
2018-10-16T10:22:10.231Z,23.45
2018-10-16T10:24:39.878Z,23.92
2018-10-16T10:27:09.515Z,23.94
2018-10-16T10:29:39.240Z,23.10
2018-10-16T10:32:08.888Z,23.73
2018-10-16T10:34:38.554Z,23.50
2018-10-16T10:37:08.210Z,23.77
2018-10-16T10:39:37.838Z,24.56
2018-10-16T10:42:07.505Z,25.47
2018-10-16T10:44:37.103Z,24.59
2018-10-16T10:47:07.190Z,25.70
2018-10-16T10:49:36.786Z,25.30
2018-10-16T10:52:06.402Z,25.68
2018-10-16T10:54:36.097Z,26.18
2018-10-16T10:57:06.809Z,25.83
2018-10-16T10:59:36.391Z,25.44
2018-10-16T11:02:06.306Z,26.00
2018-10-16T11:04:35.957Z,26.48
2018-10-16T11:10:13.277Z,26.70
2018-10-16T11:12:44.011Z,26.74
2018-10-16T11:15:13.843Z,26.41
2018-10-16T11:17:43.507Z,26.63
2018-10-16T11:20:14.087Z,26.83
2018-10-16T11:22:43.695Z,26.29
2018-10-16T11:25:13.411Z,26.28
2018-10-16T11:27:43.188Z,25.67
2018-10-16T11:30:14.674Z,25.26
2018-10-16T11:32:44.574Z,24.74
2018-10-16T11:35:15.112Z,25.93
2018-10-16T11:37:44.663Z,27.36
2018-10-16T11:40:14.246Z,28.25
2018-10-16T11:42:43.948Z,28.80
2018-10-16T11:45:13.585Z,27.24
2018-10-16T11:47:43.126Z,27.94
2018-10-16T11:50:13.145Z,28.13
2018-10-16T11:52:42.974Z,28.68
2018-10-16T11:55:12.645Z,28.38
2018-10-16T11:57:42.250Z,28.98
2018-10-16T12:00:15.794Z,29.27
2018-10-16T12:02:46.040Z,28.43
2018-10-16T12:05:15.863Z,29.62
2018-10-16T12:07:45.441Z,29.64
2018-10-16T12:10:15.075Z,29.29
2018-10-16T12:15:47.199Z,28.36
2018-10-16T12:18:22.265Z,26.92
2018-10-16T12:20:56.863Z,25.03
2018-10-16T12:23:26.505Z,25.89
2018-10-16T12:25:58.184Z,27.07
2018-10-16T12:28:30.265Z,26.26
2018-10-16T12:30:59.976Z,27.61
2018-10-16T12:33:29.911Z,28.12
2018-10-16T12:35:59.554Z,28.17
2018-10-16T12:38:29.286Z,29.07
2018-10-16T12:40:59.018Z,28.17
2018-10-16T12:43:29.494Z,27.36
2018-10-16T12:45:59.924Z,27.72
2018-10-16T12:48:30.179Z,28.03
2018-10-16T12:51:00.253Z,29.22
2018-10-16T12:53:30.822Z,28.21
2018-10-16T12:56:00.554Z,28.35
2018-10-16T12:58:30.251Z,28.78
2018-10-16T13:00:59.863Z,29.44
2018-10-16T13:03:29.506Z,30.17
2018-10-16T13:05:59.171Z,29.60
2018-10-16T13:08:28.874Z,28.81
2018-10-16T13:10:58.556Z,29.08
2018-10-16T13:13:28.137Z,29.68
2018-10-16T13:19:08.659Z,27.05
2018-10-16T13:21:38.367Z,26.55
2018-10-16T13:24:08.121Z,26.94
2018-10-16T13:26:37.714Z,27.51
2018-10-16T13:29:08.083Z,27.27
2018-10-16T13:31:37.658Z,27.66
2018-10-16T13:34:07.710Z,27.16
2018-10-16T13:36:41.144Z,26.54
2018-10-16T13:39:10.833Z,27.11
2018-10-16T13:41:40.331Z,26.97
2018-10-16T13:44:13.155Z,27.28
2018-10-16T13:46:42.722Z,28.51
2018-10-16T13:49:12.383Z,27.43
2018-10-16T13:51:44.103Z,27.55
2018-10-16T13:54:15.043Z,27.84
2018-10-16T13:56:44.701Z,27.39
2018-10-16T13:59:14.282Z,28.10
2018-10-16T14:01:44.015Z,27.95
2018-10-16T14:04:14.014Z,28.06
2018-10-16T14:06:43.598Z,27.67
2018-10-16T14:09:13.203Z,27.93
2018-10-16T14:11:42.834Z,27.48
2018-10-16T14:14:12.580Z,27.47
2018-10-16T14:16:42.221Z,27.69
2018-10-16T14:19:11.970Z,28.36
2018-10-16T14:21:41.663Z,28.30
2018-10-16T14:24:11.421Z,28.80
2018-10-16T14:26:41.079Z,27.98
2018-10-16T14:29:11.100Z,28.20
2018-10-16T14:31:42.250Z,28.46
2018-10-16T14:34:12.073Z,28.17
2018-10-16T14:36:42.023Z,28.36
2018-10-16T14:39:12.805Z,27.69
2018-10-16T14:41:42.479Z,27.51
2018-10-16T14:44:12.107Z,26.96
2018-10-16T14:46:41.650Z,27.03
2018-10-16T14:49:11.582Z,27.06
2018-10-16T14:51:57.556Z,26.78
2018-10-16T14:54:27.206Z,27.01
2018-10-16T14:56:56.850Z,26.88
2018-10-16T14:59:26.698Z,27.41
2018-10-16T15:01:56.268Z,26.81
2018-10-16T15:04:25.894Z,26.59
2018-10-16T15:06:55.610Z,27.44
2018-10-16T15:09:27.492Z,27.43
2018-10-16T15:11:57.044Z,27.64
2018-10-16T15:14:26.578Z,27.55
2018-10-16T15:17:20.739Z,28.20
2018-10-16T15:20:11.684Z,29.06
2018-10-16T15:22:41.235Z,29.69
2018-10-16T15:25:11.403Z,30.40
2018-10-16T15:27:41.075Z,30.56
2018-10-16T15:30:11.190Z,30.62
2018-10-16T15:32:42.239Z,30.96
2018-10-16T15:35:12.287Z,30.88
2018-10-16T15:37:41.918Z,31.20
2018-10-16T15:40:12.350Z,31.85
2018-10-16T15:42:42.470Z,32.07
2018-10-16T15:45:12.977Z,31.71
2018-10-16T15:47:52.614Z,30.29
2018-10-16T15:50:22.181Z,29.25
2018-10-16T15:52:57.457Z,27.95
2018-10-16T15:55:26.991Z,27.32
2018-10-16T15:57:56.706Z,25.91
2018-10-16T16:00:26.850Z,23.91
2018-10-16T16:02:56.942Z,23.07
2018-10-16T16:05:26.646Z,22.28
2018-10-16T16:07:56.294Z,21.54
2018-10-16T16:10:29.865Z,20.91
2018-10-16T16:12:59.583Z,20.35
2018-10-16T16:15:36.812Z,19.78
2018-10-16T16:18:07.065Z,19.21
2018-10-16T16:20:36.767Z,18.89
2018-10-16T16:23:16.524Z,18.48
2018-10-16T16:26:00.402Z,18.03
2018-10-16T16:28:30.032Z,17.66
2018-10-16T16:30:59.953Z,17.46
2018-10-16T16:33:46.991Z,17.22
2018-10-16T16:36:17.380Z,16.95
2018-10-16T16:38:49.643Z,16.73
2018-10-16T16:41:19.722Z,16.62
2018-10-16T16:43:50.919Z,16.44
2018-10-16T16:46:20.570Z,16.26
2018-10-16T16:48:50.249Z,16.08
2018-10-16T16:51:34.647Z,15.89
2018-10-16T16:54:04.648Z,15.75
2018-10-16T16:56:34.734Z,15.61
2018-10-16T16:59:08.346Z,15.49
2018-10-16T17:01:38.533Z,15.31
2018-10-16T17:04:08.407Z,15.22
2018-10-16T17:06:38.048Z,15.17
2018-10-16T17:09:18.423Z,15.05
2018-10-16T17:15:04.402Z,14.71
2018-10-16T17:17:35.199Z,14.53
2018-10-16T17:20:05.530Z,14.37
2018-10-16T17:22:45.716Z,14.31
2018-10-16T17:25:23.418Z,14.22
2018-10-16T17:27:54.169Z,14.02
2018-10-16T17:30:23.875Z,13.93
2018-10-16T17:32:54.204Z,13.81
2018-10-16T17:35:31.399Z,13.74
2018-10-16T17:38:01.499Z,13.68
2018-10-16T17:40:31.292Z,13.62
2018-10-16T17:43:12.304Z,13.60
2018-10-16T17:45:42.101Z,13.54
2018-10-16T17:48:19.837Z,13.49
2018-10-16T17:50:55.180Z,13.37
2018-10-16T17:53:25.494Z,13.29
2018-10-16T17:56:08.091Z,13.19
2018-10-16T17:58:38.578Z,13.13
2018-10-16T18:01:08.840Z,13.07
2018-10-16T18:03:38.495Z,12.97
2018-10-16T18:06:08.146Z,12.94
2018-10-16T18:08:37.793Z,12.88
2018-10-16T18:11:11.641Z,12.80
2018-10-16T18:13:41.864Z,12.68
2018-10-16T18:16:11.704Z,12.58
2018-10-16T18:18:41.501Z,12.50
2018-10-16T18:21:17.723Z,12.48
2018-10-16T18:23:47.532Z,12.49
2018-10-16T18:26:17.477Z,12.49
2018-10-16T18:28:47.072Z,12.43
2018-10-16T18:31:17.528Z,12.34
2018-10-16T18:33:47.546Z,12.25
2018-10-16T18:36:22.791Z,12.19
2018-10-16T18:38:53.121Z,12.08
2018-10-16T18:41:23.438Z,12.01
2018-10-16T18:43:53.717Z,11.97
2018-10-16T18:46:31.054Z,11.91
2018-10-16T18:49:01.215Z,11.85
2018-10-16T18:51:31.553Z,11.83
2018-10-16T18:54:05.067Z,11.73
2018-10-16T18:56:36.782Z,11.69
2018-10-16T18:59:07.818Z,11.61
2018-10-16T19:01:37.654Z,11.50
2018-10-16T19:04:08.108Z,11.42
2018-10-16T19:06:37.814Z,11.39
2018-10-16T19:09:10.967Z,11.31
2018-10-16T19:11:40.796Z,11.25
2018-10-16T19:14:10.467Z,11.21
2018-10-16T19:16:40.686Z,11.26
2018-10-16T19:19:10.354Z,11.22
2018-10-16T19:21:43.302Z,11.15
2018-10-16T19:24:12.925Z,11.09
2018-10-16T19:26:42.616Z,11.07
2018-10-16T19:29:18.202Z,10.99
2018-10-16T19:31:47.846Z,10.90
2018-10-16T19:34:17.210Z,10.85
2018-10-16T19:36:46.565Z,10.86
2018-10-16T19:39:23.249Z,10.88
2018-10-16T19:41:52.689Z,10.90
2018-10-16T19:44:21.990Z,10.86
2018-10-16T19:47:04.454Z,10.85
2018-10-16T19:49:33.826Z,10.83
2018-10-16T19:52:03.158Z,10.80
2018-10-16T19:54:32.601Z,10.75
2018-10-16T19:57:02.100Z,10.63
2018-10-16T19:59:31.345Z,10.50
2018-10-16T20:02:00.667Z,10.42
2018-10-16T20:04:35.015Z,10.33
2018-10-16T20:07:20.697Z,10.28
2018-10-16T20:09:51.286Z,10.29
2018-10-16T20:12:21.063Z,10.40
2018-10-16T20:15:04.914Z,10.42
2018-10-16T20:17:34.573Z,10.39
2018-10-16T20:20:04.180Z,10.31
2018-10-16T20:22:34.867Z,10.23
2018-10-16T20:25:04.592Z,10.23
2018-10-16T20:27:34.178Z,10.23
2018-10-16T20:30:04.086Z,10.11
2018-10-16T20:32:37.157Z,10.05
2018-10-16T20:35:07.003Z,10.03
2018-10-16T20:37:36.783Z,10.02
2018-10-16T20:40:07.427Z,10.10
2018-10-16T20:42:37.727Z,10.05
2018-10-16T20:45:07.864Z,10.00
2018-10-16T20:47:37.931Z,10.02
2018-10-16T20:50:08.330Z,10.00
2018-10-16T20:52:38.435Z,9.87
2018-10-16T20:55:08.973Z,9.79
2018-10-16T20:57:42.868Z,9.81
2018-10-16T21:00:12.600Z,9.66
2018-10-16T21:02:42.233Z,9.52
2018-10-16T21:05:19.500Z,9.47
2018-10-16T21:07:54.575Z,9.53
2018-10-16T21:10:24.241Z,9.53
2018-10-16T21:13:02.233Z,9.55
2018-10-16T21:15:31.914Z,9.51
2018-10-16T21:18:01.763Z,9.48
2018-10-16T21:21:02.274Z,9.46
2018-10-16T21:23:31.931Z,9.43
2018-10-16T21:26:12.054Z,9.40
2018-10-16T21:28:41.854Z,9.36
2018-10-16T21:31:11.896Z,9.33
2018-10-16T21:33:41.946Z,9.33
2018-10-16T21:36:11.917Z,9.37
2018-10-16T21:38:41.719Z,9.32
2018-10-16T21:41:11.352Z,9.25
2018-10-16T21:43:41.482Z,9.26
2018-10-16T21:46:11.071Z,9.24
2018-10-16T21:48:40.918Z,9.18
2018-10-16T21:51:10.505Z,9.15
2018-10-16T21:53:40.158Z,9.13
2018-10-16T21:56:10.826Z,9.08
2018-10-16T21:58:40.481Z,9.01
2018-10-16T22:01:11.400Z,8.95
2018-10-16T22:03:41.306Z,8.78
2018-10-16T22:06:10.950Z,8.69
2018-10-16T22:08:40.634Z,8.58
2018-10-16T22:11:10.330Z,8.60
2018-10-16T22:13:39.842Z,8.72
2018-10-16T22:16:17.091Z,8.83
2018-10-16T22:18:46.689Z,8.88
2018-10-16T22:21:16.482Z,8.89
2018-10-16T22:23:46.081Z,8.79
2018-10-16T22:26:15.701Z,8.70
2018-10-16T22:28:45.306Z,8.60
2018-10-16T22:31:14.968Z,8.60
2018-10-16T22:33:44.572Z,8.63
2018-10-16T22:36:14.221Z,8.61
2018-10-16T22:38:43.823Z,8.59
2018-10-16T22:41:13.611Z,8.54
2018-10-16T22:43:43.218Z,8.49
2018-10-16T22:46:12.844Z,8.49
2018-10-16T22:48:42.559Z,8.48
2018-10-16T22:51:12.225Z,8.38
2018-10-16T22:53:41.817Z,8.25
2018-10-16T22:56:11.434Z,8.16
2018-10-16T22:58:41.038Z,8.11
2018-10-16T23:01:10.667Z,8.23
2018-10-16T23:03:40.295Z,8.31
2018-10-16T23:06:09.981Z,8.30
2018-10-16T23:08:58.270Z,8.29
2018-10-16T23:11:27.968Z,8.23
2018-10-16T23:13:57.573Z,8.26
2018-10-16T23:16:27.200Z,8.27
2018-10-16T23:18:56.866Z,8.28
2018-10-16T23:21:26.543Z,8.22
2018-10-16T23:23:55.900Z,8.26
2018-10-16T23:26:25.176Z,8.32
2018-10-16T23:28:56.556Z,8.31
2018-10-16T23:31:25.981Z,8.31
2018-10-16T23:33:55.248Z,8.25
2018-10-16T23:36:24.656Z,8.09
2018-10-16T23:38:53.956Z,8.20
2018-10-16T23:41:23.285Z,8.26
2018-10-16T23:43:52.915Z,8.25
2018-10-16T23:46:22.288Z,8.29
2018-10-16T23:48:51.634Z,8.27
2018-10-16T23:51:20.936Z,8.25
2018-10-16T23:53:50.269Z,8.21
2018-10-16T23:56:19.588Z,8.20
2018-10-16T23:59:10.068Z,8.21
